LBBG

Burgas Airport

Airport
ICAO code
LBBG
IATA Code
BOJ
Summary
ICAO Region
EUR
ICAO Territory
Location

Sarafovo, Northern Thrace

Serving
Burgas
Elevation
135 ft
Coordinates
42° 34' 10" N , 27° 30' 55" E
KCC
Metar
Observation
LBBG 281130Z 03020KT 9999 -RA FEW030 SCT035 08/03 Q1020 TEMPO 02018G28KT RA
Station
Burgas
Date/Time
2022-11-28 11:30:00
Wind direction
30°
Wind speed
20 kts
Lowest cloud amount
few clouds
Temperature
8°C
Dew point
3°C
Humidity
70%
QNH
1020 hPa
Weather condition
light rain

Burgas Airport is an international airport in southeast Bulgaria and the second largest airport in the country. The airport is located near the northern neighbourhood of Sarafovo 10 kilometres from the city centre of Burgas.

Climatology

Humid subtropical climate (Köppen climate classification Cfa)

Runways

Designator Length Width Surface Rops
4/22 3200 45 CON Yes/Yes

Airport map

Aerial View

SKYbrary Partners:

Safety knowledge contributed by: